KMWO/MWO METAR and TAF weather

Enter ICAO airport designator
Station Type Date Time Source
KMWO METAR 2019/12/06 23:55 UTC NOAA

KMWO 062355Z AUTO 36008KT 10SM CLR 03/M02 A3028 RMK AO2 T00301021 10099 20028 401021031


Station Type Date Time Source
KMWO Decoded METAR 2019/12/06 23:55 UTC NOAA

Station name not available
Dec 06, 2019 - 06:55 PM EST / 2019.12.06 2355 UTC
Wind: from the N (360 degrees) at 9 MPH (8 KT):0
Visibility: 10 mile(s):0
Sky conditions: clear
Temperature: 37.4 F (3.0 C)
Dew Point: 28.2 F (-2.1 C)
Relative Humidity: 69%
Pressure (altimeter): 30.28 in. Hg (1025 hPa)
ob: KMWO 062355Z AUTO 36008KT 10SM CLR 03/M02 A3028 RMK AO2 T00301021 10099 20028 401021031
cycle: 0

Station Type Date Time Source
KMWO TAF UTC NOAA

Error!

Example: see airport list